Time;durP1;ratioP1;P1;durP2;ratioP2;P2;SDS_P1;SDS_P2;PMS_P1;PMS_P2;Temp;Humidity;BMP_temperature;BMP_pressure;BME280_temperature;BME280_humidity;BME280_pressure;Samples;Min_cycle;Max_cycle;Signal;HPM_P1;HPM_P2
2021/07/28 00:00:32;;;;;;;;;;;;;;;;;;5004927;28;1894;-51
2021/07/28 00:02:58;;;;;;;;;;;;;;;;;;5002647;28;1507;-51
2021/07/28 00:05:23;;;;;;;;;;;;;;;;;;5003000;28;1568;-51
2021/07/28 00:07:48;;;;;;;;;;;;;;;;;;5003803;28;1563;-52
2021/07/28 00:10:13;;;;;;;;;;;;;;;;;;5006150;28;1556;-51
2021/07/28 00:12:38;;;;;;;;;;;;;;;;;;4998445;28;1233;-49
2021/07/28 00:15:04;;;;;;;;;;;;;;;;;;5003405;28;1556;-50
2021/07/28 00:17:30;;;;;;;;;;;;;;;;;;4999549;28;1367;-51
2021/07/28 00:20:00;;;;;;;;;;;;;;;;;;5001994;28;1907;-49
2021/07/28 00:25:10;;;;;;;;;;;;;;;;;;4995439;28;1634;-51
2021/07/28 00:27:35;;;;;;;;;;;;;;;;;;5000602;28;1683;-49
2021/07/28 00:30:01;;;;;;;;;;;;;;;;;;5006157;28;1488;-51
2021/07/28 00:32:26;;;;;;;;;;;;;;;;;;5001780;28;1110;-51
2021/07/28 00:34:51;;;;;;;;;;;;;;;;;;5003081;28;1284;-51
2021/07/28 00:37:16;;;;;;;;;;;;;;;;;;5006137;28;1631;-51
2021/07/28 00:39:41;;;;;;;;;;;;;;;;;;5001051;28;1906;-51
2021/07/28 00:42:06;;;;;;;;;;;;;;;;;;5002839;28;1586;-51
2021/07/28 00:44:32;;;;;;;;;;;;;;;;;;5004707;28;1166;-51
2021/07/28 00:46:57;;;;;;;;;;;;;;;;;;5005309;28;1195;-51
2021/07/28 00:49:22;;;;;;;;;;;;;;;;;;5002509;28;1336;-51
2021/07/28 00:51:48;;;;;;;;;;;;;;;;;;4996510;28;1643;-51
2021/07/28 00:54:13;;;;;;;;;;;;;;;;;;5002928;28;1224;-51
2021/07/28 00:56:38;;;;;;;;;;;;;;;;;;5006163;28;1535;-51
2021/07/28 00:59:03;;;;;;;;;;;;;;;;;;4985834;28;1894;-49
2021/07/28 01:01:28;;;;;;;;;;;;;;;;;;5002159;28;1170;-51
2021/07/28 01:03:54;;;;;;;;;;;;;;;;;;4997975;28;990;-49
2021/07/28 01:06:19;;;;;;;;;;;;;;;;;;5002174;28;1603;-52
2021/07/28 01:08:44;;;;;;;;;;;;;;;;;;5000714;28;1296;-50
2021/07/28 01:11:09;;;;;;;;;;;;;;;;;;4994976;28;1612;-51
2021/07/28 01:13:36;;;;;;;;;;;;;;;;;;5000800;28;1375;-50
2021/07/28 01:16:06;;;;;;;;;;;;;;;;;;5000279;28;1189;-50
2021/07/28 01:18:32;;;;;;;;;;;;;;;;;;5000378;28;1894;-50
2021/07/28 01:20:57;;;;;;;;;;;;;;;;;;4992730;28;1969;-51
2021/07/28 01:23:23;;;;;;;;;;;;;;;;;;4994962;28;1366;-49
2021/07/28 01:25:48;;;;;;;;;;;;;;;;;;5000551;28;1906;-49
2021/07/28 01:28:13;;;;;;;;;;;;;;;;;;4996605;28;1572;-52
2021/07/28 01:30:38;;;;;;;;;;;;;;;;;;4998073;28;1229;-51
2021/07/28 01:33:04;;;;;;;;;;;;;;;;;;5000587;28;1091;-50
2021/07/28 01:35:30;;;;;;;;;;;;;;;;;;4998751;28;1189;-52
2021/07/28 01:37:55;;;;;;;;;;;;;;;;;;5027115;23;1910;-53
2021/07/28 01:40:20;;;;;;;;;;;;;;;;;;5001621;28;1914;-51
2021/07/28 01:42:46;;;;;;;;;;;;;;;;;;5000356;28;1617;-52
2021/07/28 01:45:11;;;;;;;;;;;;;;;;;;4999805;28;1339;-52
2021/07/28 01:47:36;;;;;;;;;;;;;;;;;;5003048;28;1273;-51
2021/07/28 01:50:01;;;;;;;;;;;;;;;;;;5014338;28;1481;-52
2021/07/28 01:52:26;;;;;;;;;;;;;;;;;;5013772;28;1642;-51
2021/07/28 01:54:52;;;;;;;;;;;;;;;;;;5015197;28;1385;-51
2021/07/28 01:57:17;;;;;;;;;;;;;;;;;;5011413;28;1633;-51
2021/07/28 01:59:42;;;;;;;;;;;;;;;;;;5017611;28;1972;-52
2021/07/28 02:02:07;;;;;;;;;;;;;;;;;;5015513;28;1185;-53
2021/07/28 02:04:32;;;;;;;;;;;;;;;;;;5010548;28;1594;-51
2021/07/28 02:06:57;;;;;;;;;;;;;;;;;;5015271;28;1241;-53
2021/07/28 02:09:23;;;;;;;;;;;;;;;;;;5016108;28;1343;-53
2021/07/28 02:11:48;;;;;;;;;;;;;;;;;;5014242;28;1579;-52
2021/07/28 02:14:13;;;;;;;;;;;;;;;;;;5017466;28;1201;-52
2021/07/28 02:16:38;;;;;;;;;;;;;;;;;;5019005;28;1272;-53
2021/07/28 02:19:03;;;;;;;;;;;;;;;;;;5014804;28;1906;-52
2021/07/28 02:21:29;;;;;;;;;;;;;;;;;;5020880;28;1094;-52
2021/07/28 02:23:54;;;;;;;;;;;;;;;;;;5022580;28;1109;-52
2021/07/28 02:26:19;;;;;;;;;;;;;;;;;;5010385;28;1595;-52
2021/07/28 02:28:44;;;;;;;;;;;;;;;;;;5020055;28;1788;-52
2021/07/28 02:31:09;;;;;;;;;;;;;;;;;;5007694;28;1660;-51
2021/07/28 02:33:34;;;;;;;;;;;;;;;;;;5021890;28;1156;-53
2021/07/28 02:35:59;;;;;;;;;;;;;;;;;;5022361;28;1153;-52
2021/07/28 02:38:25;;;;;;;;;;;;;;;;;;5020409;28;1464;-51
2021/07/28 02:40:50;;;;;;;;;;;;;;;;;;5012902;28;1911;-50
2021/07/28 02:43:15;;;;;;;;;;;;;;;;;;5021396;28;1166;-52
2021/07/28 02:45:40;;;;;;;;;;;;;;;;;;5018662;28;1256;-53
2021/07/28 02:48:06;;;;;;;;;;;;;;;;;;5020242;28;1240;-53
2021/07/28 02:50:32;;;;;;;;;;;;;;;;;;4996468;28;1579;-51
2021/07/28 02:52:57;;;;;;;;;;;;;;;;;;5017276;28;1031;-52
2021/07/28 02:55:22;;;;;;;;;;;;;;;;;;5008367;28;1587;-52
2021/07/28 02:57:48;;;;;;;;;;;;;;;;;;5018457;28;1277;-51
2021/07/28 03:00:13;;;;;;;;;;;;;;;;;;5018208;28;1906;-52
2021/07/28 03:02:38;;;;;;;;;;;;;;;;;;5018746;28;1157;-52
2021/07/28 03:05:04;;;;;;;;;;;;;;;;;;5013858;28;1781;-50
2021/07/28 03:07:29;;;;;;;;;;;;;;;;;;5019625;28;1287;-51
2021/07/28 03:09:54;;;;;;;;;;;;;;;;;;5018074;28;1320;-52
2021/07/28 03:12:19;;;;;;;;;;;;;;;;;;5014641;28;1666;-50
2021/07/28 03:14:45;;;;;;;;;;;;;;;;;;5016546;28;1101;-51
2021/07/28 03:17:10;;;;;;;;;;;;;;;;;;5020669;28;1169;-51
2021/07/28 03:19:35;;;;;;;;;;;;;;;;;;5017007;28;1977;-50
2021/07/28 03:22:00;;;;;;;;;;;;;;;;;;5011510;28;1846;-53
2021/07/28 03:24:25;;;;;;;;;;;;;;;;;;5018087;28;1130;-53
2021/07/28 03:26:50;;;;;;;;;;;;;;;;;;5015827;28;1586;-53
2021/07/28 03:29:16;;;;;;;;;;;;;;;;;;5019665;28;1284;-52
2021/07/28 03:31:41;;;;;;;;;;;;;;;;;;5015651;28;1559;-52
2021/07/28 03:34:06;;;;;;;;;;;;;;;;;;5004083;28;1562;-53
2021/07/28 03:36:31;;;;;;;;;;;;;;;;;;5021656;28;1188;-53
2021/07/28 03:38:56;;;;;;;;;;;;;;;;;;5021558;28;2002;-52
2021/07/28 03:41:21;;;;;;;;;;;;;;;;;;5017949;28;1578;-53
2021/07/28 03:43:47;;;;;;;;;;;;;;;;;;5016055;28;1157;-51
2021/07/28 03:46:12;;;;;;;;;;;;;;;;;;5015990;28;1508;-52
2021/07/28 03:48:37;;;;;;;;;;;;;;;;;;5019425;28;1339;-51
2021/07/28 03:51:02;;;;;;;;;;;;;;;;;;5012462;28;1464;-52
2021/07/28 03:53:27;;;;;;;;;;;;;;;;;;5013899;28;1483;-51
2021/07/28 03:55:53;;;;;;;;;;;;;;;;;;5010586;28;1546;-52
2021/07/28 03:58:18;;;;;;;;;;;;;;;;;;5018274;28;1367;-52
2021/07/28 04:00:43;;;;;;;;;;;;;;;;;;5016287;28;1902;-53
2021/07/28 04:03:08;;;;;;;;;;;;;;;;;;5017937;28;1438;-53
2021/07/28 04:05:34;;;;;;;;;;;;;;;;;;5016631;28;1527;-50
2021/07/28 04:07:59;;;;;;;;;;;;;;;;;;5020028;28;1406;-50
2021/07/28 04:10:24;;;;;;;;;;;;;;;;;;5010040;28;1587;-53
2021/07/28 04:12:49;;;;;;;;;;;;;;;;;;5015661;28;1399;-51
2021/07/28 04:15:15;;;;;;;;;;;;;;;;;;5014209;28;1455;-50
2021/07/28 04:17:40;;;;;;;;;;;;;;;;;;5016453;28;1284;-50
2021/07/28 04:20:05;;;;;;;;;;;;;;;;;;5010678;28;1965;-52
2021/07/28 04:22:31;;;;;;;;;;;;;;;;;;5016399;28;1134;-52
2021/07/28 04:24:56;;;;;;;;;;;;;;;;;;5018522;28;1022;-50
2021/07/28 04:27:21;;;;;;;;;;;;;;;;;;5018600;28;1742;-52
2021/07/28 04:29:46;;;;;;;;;;;;;;;;;;5016758;28;1285;-52
2021/07/28 04:32:11;;;;;;;;;;;;;;;;;;5015153;28;1181;-52
2021/07/28 04:34:37;;;;;;;;;;;;;;;;;;5011245;28;1578;-50
2021/07/28 04:37:02;;;;;;;;;;;;;;;;;;5013196;28;960;-53
2021/07/28 04:39:27;;;;;;;;;;;;;;;;;;5018056;28;1911;-51
2021/07/28 04:41:52;;;;;;;;;;;;;;;;;;5010449;28;1621;-52
2021/07/28 04:44:18;;;;;;;;;;;;;;;;;;5017021;28;1252;-51
2021/07/28 04:46:43;;;;;;;;;;;;;;;;;;5015253;28;1137;-53
2021/07/28 04:49:08;;;;;;;;;;;;;;;;;;5014329;28;1559;-52
2021/07/28 04:51:33;;;;;;;;;;;;;;;;;;5016905;28;1245;-52
2021/07/28 04:53:58;;;;;;;;;;;;;;;;;;5013100;28;1618;-52
2021/07/28 04:56:24;;;;;;;;;;;;;;;;;;5013641;28;1559;-52
2021/07/28 04:58:49;;;;;;;;;;;;;;;;;;5015807;28;1288;-51
2021/07/28 05:01:14;;;;;;;;;;;;;;;;;;5014835;28;1970;-53
2021/07/28 05:03:39;;;;;;;;;;;;;;;;;;5016079;28;1138;-51
2021/07/28 05:06:04;;;;;;;;;;;;;;;;;;5016518;28;1542;-52
2021/07/28 05:08:29;;;;;;;;;;;;;;;;;;5015487;28;1555;-52
2021/07/28 05:10:55;;;;;;;;;;;;;;;;;;5011054;28;1619;-52
2021/07/28 05:13:20;;;;;;;;;;;;;;;;;;5015292;28;1288;-51
2021/07/28 05:15:47;;;;;;;;;;;;;;;;;;5014469;28;1177;-52
2021/07/28 05:18:13;;;;;;;;;;;;;;;;;;5013915;28;1434;-52
2021/07/28 05:20:38;;;;;;;;;;;;;;;;;;5013801;28;1902;-51
2021/07/28 05:23:03;;;;;;;;;;;;;;;;;;5015701;28;1236;-52
2021/07/28 05:25:28;;;;;;;;;;;;;;;;;;5012369;28;1575;-51
2021/07/28 05:27:54;;;;;;;;;;;;;;;;;;5016475;28;1414;-52
2021/07/28 05:30:19;;;;;;;;;;;;;;;;;;5016517;28;991;-51
2021/07/28 05:32:44;;;;;;;;;;;;;;;;;;5012731;28;1578;-52
2021/07/28 05:35:09;;;;;;;;;;;;;;;;;;5015424;28;1193;-51
2021/07/28 05:37:35;;;;;;;;;;;;;;;;;;5014435;28;1591;-49
2021/07/28 05:40:00;;;;;;;;;;;;;;;;;;5011973;28;2120;-49
2021/07/28 05:42:25;;;;;;;;;;;;;;;;;;5014977;28;1225;-51
2021/07/28 05:44:50;;;;;;;;;;;;;;;;;;5011043;28;1355;-51
2021/07/28 05:47:15;;;;;;;;;;;;;;;;;;5014092;28;1166;-50
2021/07/28 05:49:40;;;;;;;;;;;;;;;;;;5012591;28;1590;-50
2021/07/28 05:52:06;;;;;;;;;;;;;;;;;;5013926;28;1637;-51
2021/07/28 05:54:31;;;;;;;;;;;;;;;;;;5017878;28;1161;-51
2021/07/28 05:56:56;;;;;;;;;;;;;;;;;;5008503;28;1574;-50
2021/07/28 05:59:21;;;;;;;;;;;;;;;;;;5017664;28;1948;-50
2021/07/28 06:01:47;;;;;;;;;;;;;;;;;;5015277;28;1201;-52
2021/07/28 06:04:12;;;;;;;;;;;;;;;;;;5017243;28;1284;-53
2021/07/28 06:06:37;;;;;;;;;;;;;;;;;;5014162;28;1822;-51
2021/07/28 06:09:02;;;;;;;;;;;;;;;;;;5013960;28;1300;-52
2021/07/28 06:11:27;;;;;;;;;;;;;;;;;;5016043;28;1674;-52
2021/07/28 06:13:52;;;;;;;;;;;;;;;;;;5016047;28;1383;-50
2021/07/28 06:16:18;;;;;;;;;;;;;;;;;;5014182;28;1237;-52
2021/07/28 06:18:43;;;;;;;;;;;;;;;;;;5013356;28;1637;-52
2021/07/28 06:21:08;;;;;;;;;;;;;;;;;;5012553;28;1965;-51
2021/07/28 06:23:33;;;;;;;;;;;;;;;;;;5016122;28;1287;-52
2021/07/28 06:25:58;;;;;;;;;;;;;;;;;;5013497;28;1759;-51
2021/07/28 06:28:24;;;;;;;;;;;;;;;;;;5015073;28;1289;-50
2021/07/28 06:30:52;;;;;;;;;;;;;;;;;;5015748;28;1308;-52
2021/07/28 06:33:18;;;;;;;;;;;;;;;;;;5009732;28;1669;-50
2021/07/28 06:35:43;;;;;;;;;;;;;;;;;;5011983;28;1407;-51
2021/07/28 06:38:08;;;;;;;;;;;;;;;;;;5013253;28;1319;-52
2021/07/28 06:40:33;;;;;;;;;;;;;;;;;;5011021;28;1968;-50
2021/07/28 06:42:59;;;;;;;;;;;;;;;;;;5002206;28;1546;-52
2021/07/28 06:45:24;;;;;;;;;;;;;;;;;;5006603;28;1363;-52
2021/07/28 06:47:49;;;;;;;;;;;;;;;;;;5010178;28;1316;-53
2021/07/28 06:50:14;;;;;;;;;;;;;;;;;;5008577;28;1177;-52
2021/07/28 06:52:39;;;;;;;;;;;;;;;;;;5013465;28;1559;-51
2021/07/28 06:55:05;;;;;;;;;;;;;;;;;;5015476;28;1587;-53
2021/07/28 06:57:30;;;;;;;;;;;;;;;;;;5015240;28;1770;-52
2021/07/28 06:59:58;;;;;;;;;;;;;;;;;;5015860;28;2353;-52
2021/07/28 07:02:24;;;;;;;;;;;;;;;;;;5022503;28;1165;-50
2021/07/28 07:04:49;;;;;;;;;;;;;;;;;;5018485;28;1308;-52
2021/07/28 07:07:14;;;;;;;;;;;;;;;;;;5019638;28;1615;-51
2021/07/28 07:09:39;;;;;;;;;;;;;;;;;;5011426;28;1499;-52
2021/07/28 07:12:04;;;;;;;;;;;;;;;;;;5012206;28;1626;-50
2021/07/28 07:14:30;;;;;;;;;;;;;;;;;;5016636;28;1360;-52
2021/07/28 07:16:55;;;;;;;;;;;;;;;;;;5013869;28;1351;-52
2021/07/28 07:19:21;;;;;;;;;;;;;;;;;;5016310;28;1954;-53
2021/07/28 07:21:46;;;;;;;;;;;;;;;;;;5016001;28;1607;-52
2021/07/28 07:24:11;;;;;;;;;;;;;;;;;;5022119;28;1185;-52
2021/07/28 07:26:36;;;;;;;;;;;;;;;;;;5013956;28;1637;-52
2021/07/28 07:29:01;;;;;;;;;;;;;;;;;;5018219;28;1284;-52
2021/07/28 07:31:27;;;;;;;;;;;;;;;;;;5018457;28;1221;-52
2021/07/28 07:33:52;;;;;;;;;;;;;;;;;;5014077;28;1590;-52
2021/07/28 07:36:23;;;;;;;;;;;;;;;;;;5017254;28;1560;-52
2021/07/28 07:38:48;;;;;;;;;;;;;;;;;;5036719;22;1935;-54
2021/07/28 07:41:14;;;;;;;;;;;;;;;;;;5005589;28;1906;-54
2021/07/28 07:43:39;;;;;;;;;;;;;;;;;;5001588;28;1506;-51
2021/07/28 07:46:04;;;;;;;;;;;;;;;;;;5003871;28;1153;-55
2021/07/28 07:48:29;;;;;;;;;;;;;;;;;;5008597;28;1514;-54
2021/07/28 07:50:54;;;;;;;;;;;;;;;;;;5015925;28;1221;-55
2021/07/28 07:53:20;;;;;;;;;;;;;;;;;;5013860;28;1492;-55
2021/07/28 07:55:45;;;;;;;;;;;;;;;;;;5012488;28;1647;-54
2021/07/28 07:58:10;;;;;;;;;;;;;;;;;;5018521;28;1289;-54
2021/07/28 08:00:35;;;;;;;;;;;;;;;;;;5017031;28;1899;-55
2021/07/28 08:03:00;;;;;;;;;;;;;;;;;;5011724;28;1654;-54
2021/07/28 08:05:26;;;;;;;;;;;;;;;;;;5018692;28;1189;-53
2021/07/28 08:07:51;;;;;;;;;;;;;;;;;;5016359;28;1163;-55
2021/07/28 08:10:16;;;;;;;;;;;;;;;;;;5013493;28;1599;-55
2021/07/28 08:12:41;;;;;;;;;;;;;;;;;;5020493;28;1166;-55
2021/07/28 08:15:07;;;;;;;;;;;;;;;;;;5014458;28;1233;-54
2021/07/28 08:17:32;;;;;;;;;;;;;;;;;;5017291;28;1261;-54
2021/07/28 08:19:57;;;;;;;;;;;;;;;;;;5010975;28;1910;-54
2021/07/28 08:22:22;;;;;;;;;;;;;;;;;;5012363;28;1324;-55
2021/07/28 08:24:48;;;;;;;;;;;;;;;;;;5008388;28;1618;-55
2021/07/28 08:27:13;;;;;;;;;;;;;;;;;;5014225;28;1582;-55
2021/07/28 08:29:38;;;;;;;;;;;;;;;;;;5013999;28;1382;-55
2021/07/28 08:32:03;;;;;;;;;;;;;;;;;;5016174;28;1181;-55
2021/07/28 08:34:28;;;;;;;;;;;;;;;;;;5007982;28;1568;-52
2021/07/28 08:36:54;;;;;;;;;;;;;;;;;;5017135;28;1104;-56
2021/07/28 08:39:19;;;;;;;;;;;;;;;;;;5016345;28;1891;-55
2021/07/28 08:41:47;;;;;;;;;;;;;;;;;;5015289;28;1543;-55
2021/07/28 08:44:13;;;;;;;;;;;;;;;;;;5020054;28;1122;-55
2021/07/28 08:46:38;;;;;;;;;;;;;;;;;;4986584;28;1615;-54
2021/07/28 08:49:03;;;;;;;;;;;;;;;;;;5017977;28;1287;-55
2021/07/28 08:51:28;;;;;;;;;;;;;;;;;;5019803;28;1043;-55
2021/07/28 08:53:53;;;;;;;;;;;;;;;;;;5020304;28;1205;-55
2021/07/28 08:56:20;;;;;;;;;;;;;;;;;;5009201;28;1568;-55
2021/07/28 08:58:46;;;;;;;;;;;;;;;;;;5017566;28;1366;-54
2021/07/28 09:01:12;;;;;;;;;;;;;;;;;;5019212;28;1906;-54
2021/07/28 09:03:39;;;;;;;;;;;;;;;;;;5016836;28;1047;-55
2021/07/28 09:06:04;;;;;;;;;;;;;;;;;;4992055;28;1569;-54
2021/07/28 09:08:30;;;;;;;;;;;;;;;;;;5016988;28;1270;-55
2021/07/28 09:11:03;;;;;;;;;;;;;;;;;;5013541;28;1735;-54
2021/07/28 09:13:41;;;;;;;;;;;;;;;;;;5014253;28;1244;-54
2021/07/28 09:16:07;;;;;;;;;;;;;;;;;;5015269;28;1147;-55
2021/07/28 09:18:38;;;;;;;;;;;;;;;;;;5015969;28;1320;-53
2021/07/28 09:21:04;;;;;;;;;;;;;;;;;;5013180;28;1911;-54
2021/07/28 09:23:39;;;;;;;;;;;;;;;;;;5018419;28;1178;-54
2021/07/28 09:26:05;;;;;;;;;;;;;;;;;;5014253;28;2080;-55
2021/07/28 09:28:31;;;;;;;;;;;;;;;;;;5015312;28;1535;-55
2021/07/28 09:30:57;;;;;;;;;;;;;;;;;;5018907;28;1041;-54
2021/07/28 09:33:23;;;;;;;;;;;;;;;;;;5017736;28;1312;-55
2021/07/28 09:35:54;;;;;;;;;;;;;;;;;;5011828;28;1599;-55
2021/07/28 09:38:32;;;;;;;;;;;;;;;;;;5015890;28;1373;-54
2021/07/28 09:41:19;;;;;;;;;;;;;;;;;;5010684;28;1969;-55
2021/07/28 09:43:45;;;;;;;;;;;;;;;;;;5017676;28;1133;-55
2021/07/28 09:46:24;;;;;;;;;;;;;;;;;;5013224;28;1484;-55
2021/07/28 09:48:49;;;;;;;;;;;;;;;;;;5008479;28;1609;-54
2021/07/28 09:51:24;;;;;;;;;;;;;;;;;;5016748;28;1397;-54
2021/07/28 09:53:56;;;;;;;;;;;;;;;;;;5015576;28;1003;-55
2021/07/28 09:56:31;;;;;;;;;;;;;;;;;;5009850;28;1562;-55
2021/07/28 09:58:59;;;;;;;;;;;;;;;;;;4992276;28;1452;-55
2021/07/28 10:01:28;;;;;;;;;;;;;;;;;;5017673;28;1967;-55
2021/07/28 10:03:54;;;;;;;;;;;;;;;;;;4988451;28;1576;-54
2021/07/28 10:06:19;;;;;;;;;;;;;;;;;;5015731;28;1722;-54
2021/07/28 10:08:44;;;;;;;;;;;;;;;;;;5014818;28;1509;-54
2021/07/28 10:11:13;;;;;;;;;;;;;;;;;;5012074;28;1614;-54
2021/07/28 10:13:38;;;;;;;;;;;;;;;;;;5010542;28;1532;-55
2021/07/28 10:16:03;;;;;;;;;;;;;;;;;;5016730;28;1103;-55
2021/07/28 10:18:28;;;;;;;;;;;;;;;;;;4991226;28;1409;-54
2021/07/28 10:20:54;;;;;;;;;;;;;;;;;;4993268;28;1906;-55
2021/07/28 10:23:19;;;;;;;;;;;;;;;;;;5010817;28;1662;-54
2021/07/28 10:25:44;;;;;;;;;;;;;;;;;;4990014;28;1561;-55
2021/07/28 10:28:09;;;;;;;;;;;;;;;;;;4995076;28;1346;-54
2021/07/28 10:30:34;;;;;;;;;;;;;;;;;;5020062;28;1189;-55
2021/07/28 10:33:00;;;;;;;;;;;;;;;;;;5016578;28;1555;-55
2021/07/28 10:35:27;;;;;;;;;;;;;;;;;;4995950;28;1355;-55
2021/07/28 10:37:52;;;;;;;;;;;;;;;;;;5020266;28;1469;-55
2021/07/28 10:40:23;;;;;;;;;;;;;;;;;;5013905;28;1906;-55
2021/07/28 10:42:48;;;;;;;;;;;;;;;;;;5019368;28;1348;-55
2021/07/28 10:45:13;;;;;;;;;;;;;;;;;;5021389;28;1117;-55
2021/07/28 10:47:41;;;;;;;;;;;;;;;;;;5011815;28;1607;-55
2021/07/28 10:50:08;;;;;;;;;;;;;;;;;;5009909;28;1721;-54
2021/07/28 10:52:37;;;;;;;;;;;;;;;;;;5020728;28;1177;-54
2021/07/28 10:55:02;;;;;;;;;;;;;;;;;;5013580;28;1586;-55
2021/07/28 10:57:27;;;;;;;;;;;;;;;;;;5013049;28;2009;-55
2021/07/28 10:59:52;;;;;;;;;;;;;;;;;;5016614;28;1906;-55
2021/07/28 11:02:17;;;;;;;;;;;;;;;;;;5019660;28;1366;-54
2021/07/28 11:04:42;;;;;;;;;;;;;;;;;;5019313;28;1256;-55
2021/07/28 11:07:08;;;;;;;;;;;;;;;;;;5016959;28;1596;-53
2021/07/28 11:09:33;;;;;;;;;;;;;;;;;;5021647;28;1299;-55
2021/07/28 11:11:58;;;;;;;;;;;;;;;;;;5015489;28;1579;-54
2021/07/28 11:14:23;;;;;;;;;;;;;;;;;;4997830;28;1371;-54
2021/07/28 11:16:52;;;;;;;;;;;;;;;;;;5016575;28;1249;-54
2021/07/28 11:19:19;;;;;;;;;;;;;;;;;;5017280;28;1907;-55
2021/07/28 11:21:44;;;;;;;;;;;;;;;;;;5012553;28;1785;-55
2021/07/28 11:24:10;;;;;;;;;;;;;;;;;;4990069;28;1426;-54
2021/07/28 11:26:35;;;;;;;;;;;;;;;;;;5015940;28;1599;-54
2021/07/28 11:29:03;;;;;;;;;;;;;;;;;;5016649;28;1368;-55
2021/07/28 11:31:29;;;;;;;;;;;;;;;;;;5019681;28;1110;-56
2021/07/28 11:34:22;;;;;;;;;;;;;;;;;;5016542;28;1221;-55
2021/07/28 11:36:54;;;;;;;;;;;;;;;;;;5013530;28;1721;-54
2021/07/28 11:39:19;;;;;;;;;;;;;;;;;;5013795;28;2039;-55
2021/07/28 11:41:45;;;;;;;;;;;;;;;;;;5016233;28;1555;-55
2021/07/28 11:44:10;;;;;;;;;;;;;;;;;;5017743;28;1591;-55
2021/07/28 11:46:36;;;;;;;;;;;;;;;;;;5019821;28;1209;-55
2021/07/28 11:49:04;;;;;;;;;;;;;;;;;;5013494;28;1606;-55
2021/07/28 11:51:33;;;;;;;;;;;;;;;;;;5019852;28;1149;-56
2021/07/28 11:54:14;;;;;;;;;;;;;;;;;;4949864;28;1531;-56
2021/07/28 11:56:46;;;;;;;;;;;;;;;;;;5011874;28;1611;-55
2021/07/28 11:59:12;;;;;;;;;;;;;;;;;;4990490;28;1992;-53
2021/07/28 12:01:39;;;;;;;;;;;;;;;;;;5017358;28;1898;-55
2021/07/28 12:04:07;;;;;;;;;;;;;;;;;;4991799;28;1606;-55
2021/07/28 12:06:34;;;;;;;;;;;;;;;;;;5015329;28;1603;-52
2021/07/28 12:09:07;;;;;;;;;;;;;;;;;;5003148;28;1757;-55
2021/07/28 12:11:42;;;;;;;;;;;;;;;;;;5011871;28;1530;-52
2021/07/28 12:14:08;;;;;;;;;;;;;;;;;;5012775;28;1288;-55
2021/07/28 12:16:39;;;;;;;;;;;;;;;;;;5016145;28;1117;-55
2021/07/28 12:19:04;;;;;;;;;;;;;;;;;;5009409;28;1606;-55
2021/07/28 12:21:29;;;;;;;;;;;;;;;;;;5016369;28;1922;-54
2021/07/28 12:23:58;;;;;;;;;;;;;;;;;;4993304;28;1361;-54
2021/07/28 12:26:42;;;;;;;;;;;;;;;;;;5014942;28;1673;-54
2021/07/28 12:29:07;;;;;;;;;;;;;;;;;;5017894;28;1841;-55
2021/07/28 12:31:33;;;;;;;;;;;;;;;;;;4992760;28;1354;-55
2021/07/28 12:34:27;;;;;;;;;;;;;;;;;;5016362;28;1610;-52
2021/07/28 12:36:52;;;;;;;;;;;;;;;;;;5009047;28;1332;-53
2021/07/28 12:39:17;;;;;;;;;;;;;;;;;;5011755;28;1587;-52
2021/07/28 12:41:43;;;;;;;;;;;;;;;;;;5014731;28;1903;-54
2021/07/28 12:44:08;;;;;;;;;;;;;;;;;;5015683;28;1567;-53
2021/07/28 12:46:33;;;;;;;;;;;;;;;;;;5016393;28;1141;-54
2021/07/28 12:48:58;;;;;;;;;;;;;;;;;;5013756;28;1606;-54
2021/07/28 12:51:23;;;;;;;;;;;;;;;;;;5016752;28;1186;-54
2021/07/28 12:53:49;;;;;;;;;;;;;;;;;;4993755;28;1206;-55
2021/07/28 12:56:15;;;;;;;;;;;;;;;;;;5012946;28;1650;-54
2021/07/28 12:58:40;;;;;;;;;;;;;;;;;;5013799;28;1743;-53
2021/07/28 13:01:05;;;;;;;;;;;;;;;;;;5015635;28;1902;-54
2021/07/28 13:03:30;;;;;;;;;;;;;;;;;;5017619;28;1252;-54
2021/07/28 13:05:58;;;;;;;;;;;;;;;;;;5012822;28;1578;-53
2021/07/28 13:08:24;;;;;;;;;;;;;;;;;;5017027;28;1539;-52
2021/07/28 13:10:49;;;;;;;;;;;;;;;;;;5008691;28;1562;-54
2021/07/28 13:13:14;;;;;;;;;;;;;;;;;;5014635;28;1393;-53
2021/07/28 13:15:41;;;;;;;;;;;;;;;;;;5017348;28;1138;-53
2021/07/28 13:18:06;;;;;;;;;;;;;;;;;;4994715;28;1562;-52
2021/07/28 13:20:31;;;;;;;;;;;;;;;;;;5014170;28;1902;-54
2021/07/28 13:22:56;;;;;;;;;;;;;;;;;;5012614;28;1293;-54
2021/07/28 13:25:22;;;;;;;;;;;;;;;;;;5013617;28;1653;-53
2021/07/28 13:27:47;;;;;;;;;;;;;;;;;;5015388;28;1244;-54
2021/07/28 13:30:12;;;;;;;;;;;;;;;;;;5015899;28;1208;-53
2021/07/28 13:32:37;;;;;;;;;;;;;;;;;;5016648;28;1284;-54
2021/07/28 13:35:03;;;;;;;;;;;;;;;;;;5010648;28;1630;-54
2021/07/28 13:37:28;;;;;;;;;;;;;;;;;;5018508;28;1153;-52
2021/07/28 13:39:53;;;;;;;;;;;;;;;;;;5029238;23;2191;-90
2021/07/28 13:42:18;;;;;;;;;;;;;;;;;;5010804;28;1839;-90
2021/07/28 13:44:44;;;;;;;;;;;;;;;;;;5010370;28;1512;-90
2021/07/28 13:47:09;;;;;;;;;;;;;;;;;;5010800;28;1141;-90
2021/07/28 13:49:34;;;;;;;;;;;;;;;;;;5020955;28;1205;-90
2021/07/28 13:51:59;;;;;;;;;;;;;;;;;;5018788;28;1354;-90
2021/07/28 13:54:24;;;;;;;;;;;;;;;;;;5005590;28;1694;-90
2021/07/28 13:57:08;;;;;;;;;;;;;;;;;;5021476;28;1659;-91
2021/07/28 13:59:34;;;;;;;;;;;;;;;;;;5020122;28;1890;-90
2021/07/28 14:01:59;;;;;;;;;;;;;;;;;;5022326;28;1047;-90
2021/07/28 14:04:24;;;;;;;;;;;;;;;;;;5012836;28;1578;-89
2021/07/28 14:06:49;;;;;;;;;;;;;;;;;;5025585;28;1691;-89
2021/07/28 14:09:14;;;;;;;;;;;;;;;;;;5026464;28;1038;-91
2021/07/28 14:11:39;;;;;;;;;;;;;;;;;;5020900;28;1479;-90
2021/07/28 14:14:05;;;;;;;;;;;;;;;;;;5029460;28;1653;-90
2021/07/28 14:16:30;;;;;;;;;;;;;;;;;;5030105;28;1133;-90
2021/07/28 14:18:55;;;;;;;;;;;;;;;;;;5030999;28;974;-90
2021/07/28 14:21:20;;;;;;;;;;;;;;;;;;5034859;28;2307;-89
2021/07/28 14:23:45;;;;;;;;;;;;;;;;;;5047432;28;1128;-91
2021/07/28 14:26:11;;;;;;;;;;;;;;;;;;5057626;28;1494;-91
2021/07/28 14:28:36;;;;;;;;;;;;;;;;;;5036364;28;1605;-91
2021/07/28 14:31:01;;;;;;;;;;;;;;;;;;5032079;28;1186;-90
2021/07/28 14:33:26;;;;;;;;;;;;;;;;;;5024842;28;1264;-90
2021/07/28 14:35:51;;;;;;;;;;;;;;;;;;5023869;28;1712;-92
2021/07/28 14:38:16;;;;;;;;;;;;;;;;;;5028414;28;2112;-90
2021/07/28 14:40:42;;;;;;;;;;;;;;;;;;5026116;28;1922;-90
2021/07/28 14:43:07;;;;;;;;;;;;;;;;;;5027956;28;1217;-90
2021/07/28 14:45:32;;;;;;;;;;;;;;;;;;5025286;28;1273;-90
2021/07/28 14:48:00;;;;;;;;;;;;;;;;;;5026850;28;1193;-90
2021/07/28 14:50:25;;;;;;;;;;;;;;;;;;5023138;28;1895;-90
2021/07/28 14:52:51;;;;;;;;;;;;;;;;;;5024218;28;1233;-90
2021/07/28 14:55:16;;;;;;;;;;;;;;;;;;5025563;28;1668;-90
2021/07/28 14:57:41;;;;;;;;;;;;;;;;;;5023052;28;1254;-90
2021/07/28 15:00:07;;;;;;;;;;;;;;;;;;5028028;28;1898;-90
2021/07/28 15:02:33;;;;;;;;;;;;;;;;;;5011625;28;1149;-90
2021/07/28 15:04:58;;;;;;;;;;;;;;;;;;5026742;28;1578;-90
2021/07/28 15:07:23;;;;;;;;;;;;;;;;;;5024919;28;1042;-90
2021/07/28 15:09:48;;;;;;;;;;;;;;;;;;5012873;28;1106;-90
2021/07/28 15:12:13;;;;;;;;;;;;;;;;;;5020183;28;1652;-92
2021/07/28 15:14:40;;;;;;;;;;;;;;;;;;5011216;28;1359;-90
2021/07/28 15:17:05;;;;;;;;;;;;;;;;;;5024963;28;1204;-90
2021/07/28 15:19:30;;;;;;;;;;;;;;;;;;5024900;28;1898;-91
2021/07/28 15:21:55;;;;;;;;;;;;;;;;;;5024478;28;1513;-90
2021/07/28 15:24:20;;;;;;;;;;;;;;;;;;5023768;28;1268;-90
2021/07/28 15:26:46;;;;;;;;;;;;;;;;;;5020878;28;1616;-90
2021/07/28 15:29:11;;;;;;;;;;;;;;;;;;5026936;28;1094;-90
2021/07/28 15:31:36;;;;;;;;;;;;;;;;;;5009914;28;1511;-92
2021/07/28 15:34:04;;;;;;;;;;;;;;;;;;5022319;28;1355;-91
2021/07/28 15:36:30;;;;;;;;;;;;;;;;;;5010678;28;1153;-91
2021/07/28 15:39:07;;;;;;;;;;;;;;;;;;5020488;28;1609;-90
2021/07/28 15:41:35;;;;;;;;;;;;;;;;;;5024891;28;1969;-90
2021/07/28 15:44:00;;;;;;;;;;;;;;;;;;5010146;28;1357;-91
2021/07/28 15:46:32;;;;;;;;;;;;;;;;;;5011401;28;1248;-91
2021/07/28 15:48:58;;;;;;;;;;;;;;;;;;5023169;28;1553;-90
2021/07/28 15:51:23;;;;;;;;;;;;;;;;;;5012784;28;1205;-91
2021/07/28 15:53:48;;;;;;;;;;;;;;;;;;5025920;28;1174;-91
2021/07/28 15:56:14;;;;;;;;;;;;;;;;;;5021103;28;1612;-92
2021/07/28 15:58:40;;;;;;;;;;;;;;;;;;5009405;28;1511;-91
2021/07/28 16:01:05;;;;;;;;;;;;;;;;;;5024183;28;1902;-91
2021/07/28 16:03:31;;;;;;;;;;;;;;;;;;5021893;28;1076;-91
2021/07/28 16:05:56;;;;;;;;;;;;;;;;;;5011529;28;1649;-91
2021/07/28 16:08:21;;;;;;;;;;;;;;;;;;5026068;28;1304;-91
2021/07/28 16:10:46;;;;;;;;;;;;;;;;;;5023345;28;1601;-91
2021/07/28 16:13:12;;;;;;;;;;;;;;;;;;5021705;28;1157;-90
2021/07/28 16:15:37;;;;;;;;;;;;;;;;;;5024144;28;1360;-91
2021/07/28 16:18:05;;;;;;;;;;;;;;;;;;5023452;28;1091;-92
2021/07/28 16:20:30;;;;;;;;;;;;;;;;;;5020442;28;1902;-91
2021/07/28 16:23:01;;;;;;;;;;;;;;;;;;5008337;28;1571;-91
2021/07/28 16:25:47;;;;;;;;;;;;;;;;;;5019772;28;1582;-92
2021/07/28 16:28:12;;;;;;;;;;;;;;;;;;5026822;28;1292;-91
2021/07/28 16:30:38;;;;;;;;;;;;;;;;;;5010667;28;1164;-91
2021/07/28 16:33:04;;;;;;;;;;;;;;;;;;5025696;28;1367;-93
2021/07/28 16:35:29;;;;;;;;;;;;;;;;;;5010770;28;1650;-91
2021/07/28 16:37:55;;;;;;;;;;;;;;;;;;5021637;28;1537;-91
2021/07/28 16:40:21;;;;;;;;;;;;;;;;;;5011142;28;1898;-91
2021/07/28 16:42:46;;;;;;;;;;;;;;;;;;5020316;28;1027;-91
2021/07/28 16:45:11;;;;;;;;;;;;;;;;;;5022090;28;1554;-92
2021/07/28 16:47:36;;;;;;;;;;;;;;;;;;5023568;28;1174;-91
2021/07/28 16:50:02;;;;;;;;;;;;;;;;;;5020937;28;1181;-90
2021/07/28 16:52:27;;;;;;;;;;;;;;;;;;5021611;28;1576;-90
2021/07/28 16:54:52;;;;;;;;;;;;;;;;;;5025258;28;1303;-91
2021/07/28 16:57:17;;;;;;;;;;;;;;;;;;5021373;28;1749;-90